Lr2 Pioneer — VREE7 — position and weather

sailwx.info

Track history (hours):
 
Tides and Currents Weather Stations Pressure Air Temp Water Temp Dewpoint Dewpoint Depression Visibility Wind Speed Wind Dir Waves Ship Positions

Lr2 Pioneer

Last reported at 2016-Jul-18 16:25 UTC. Time now 2016-Jul-25 22:01 UTC.
Position S 28°44' E 015°27'.

Length 244 m; draft 15 m.

Type: Ship (hazmat cat A). MMSI: 477114400.

Date/timePositionNaut miles runAvg speedWind from/ knotsBaromVisibWave heightAir tempDewpointWater temp
2016-Jul-18 16:25S 28°44' E 015°27'1110.7
2016-Jul-18 15:23S 28°55' E 015°31'9110.3
2016-Jul-18 06:33S 30°20' E 016°07'1010.0
2016-Jul-18 05:32S 30°29' E 016°11'2310.2
2016-Jul-18 03:17S 30°51' E 016°21'7 9.8
2016-Jul-18 02:33S 30°58' E 016°24'1010.1
2016-Jul-18 01:33S 31°07' E 016°28'1010.1
2016-Jul-18 00:33S 31°16' E 016°32'1010.0
2016-Jul-17 23:33S 31°26' E 016°36'10 9.9
2016-Jul-17 22:33S 31°35' E 016°40'10 9.9
2016-Jul-17 21:33S 31°44' E 016°44'10 9.8
2016-Jul-17 20:33S 31°54' E 016°48'11711.7
2016-Jul-17 10:33S 33°43' E 017°37'1211.9
2016-Jul-17 09:33S 33°55' E 017°42'  
2016-Jul-14 21:09S 34°15' E 029°03'  
Track history (hours):
 
Tides and Currents Weather Stations Pressure Air Temp Water Temp Dewpoint Dewpoint Depression Visibility Wind Speed Wind Dir Waves Ship Positions

Lr2 Pioneer

Last reported at 2016-Jul-18 16:25 UTC. Time now 2016-Jul-25 22:01 UTC.
Position S 28°44' E 015°27'.

Length 244 m; draft 15 m.

Type: Ship (hazmat cat A). MMSI: 477114400.

Date/timePositionNaut miles runAvg speedWind from/ knotsBaromVisibWave heightAir tempDewpointWater temp
2016-Jul-18 16:25S 28°44' E 015°27'1110.7
2016-Jul-18 15:23S 28°55' E 015°31'9110.3
2016-Jul-18 06:33S 30°20' E 016°07'1010.0
2016-Jul-18 05:32S 30°29' E 016°11'2310.2
2016-Jul-18 03:17S 30°51' E 016°21'7 9.8
2016-Jul-18 02:33S 30°58' E 016°24'1010.1
2016-Jul-18 01:33S 31°07' E 016°28'1010.1
2016-Jul-18 00:33S 31°16' E 016°32'1010.0
2016-Jul-17 23:33S 31°26' E 016°36'10 9.9
2016-Jul-17 22:33S 31°35' E 016°40'10 9.9
2016-Jul-17 21:33S 31°44' E 016°44'10 9.8
2016-Jul-17 20:33S 31°54' E 016°48'11711.7
2016-Jul-17 10:33S 33°43' E 017°37'1211.9
2016-Jul-17 09:33S 33°55' E 017°42'  
2016-Jul-14 21:09S 34°15' E 029°03'  

Dump ship's entire track history